sensor_id;sensor_type;location;lat;lon;timestamp;pressure;altitude;pressure_sealevel;temperature;humidity
15529;BME280;7866;52.280;9.500;2023-02-23T00:03:14;99921.19;;;9.98;84.00
15529;BME280;7866;52.280;9.500;2023-02-23T00:08:15;99911.75;;;10.10;82.52
15529;BME280;7866;52.280;9.500;2023-02-23T00:13:18;99919.44;;;10.14;82.37
15529;BME280;7866;52.280;9.500;2023-02-23T00:18:20;99912.59;;;10.11;83.01
15529;BME280;7866;52.280;9.500;2023-02-23T00:23:22;99918.63;;;10.05;83.21
15529;BME280;7866;52.280;9.500;2023-02-23T00:28:27;99918.19;;;9.93;83.46
15529;BME280;7866;52.280;9.500;2023-02-23T00:33:29;99912.97;;;10.00;83.41
15529;BME280;7866;52.280;9.500;2023-02-23T00:38:34;99915.91;;;10.13;83.69
15529;BME280;7866;52.280;9.500;2023-02-23T00:43:38;99917.81;;;10.04;83.52
15529;BME280;7866;52.280;9.500;2023-02-23T00:48:47;99918.28;;;10.08;83.33
15529;BME280;7866;52.280;9.500;2023-02-23T00:53:52;99923.19;;;9.96;83.29
15529;BME280;7866;52.280;9.500;2023-02-23T00:58:55;99920.19;;;9.99;83.65
15529;BME280;7866;52.280;9.500;2023-02-23T01:03:57;99927.19;;;10.00;83.42
15529;BME280;7866;52.280;9.500;2023-02-23T01:08:59;99930.53;;;10.02;83.46
15529;BME280;7866;52.280;9.500;2023-02-23T01:14:06;99937.41;;;9.97;83.90
15529;BME280;7866;52.280;9.500;2023-02-23T01:19:08;99941.63;;;9.91;83.72
15529;BME280;7866;52.280;9.500;2023-02-23T01:24:11;99944.00;;;9.86;84.08
15529;BME280;7866;52.280;9.500;2023-02-23T01:29:16;99940.16;;;9.80;84.62
15529;BME280;7866;52.280;9.500;2023-02-23T01:34:19;99944.38;;;9.75;84.43
15529;BME280;7866;52.280;9.500;2023-02-23T01:39:21;99958.78;;;9.66;84.66
15529;BME280;7866;52.280;9.500;2023-02-23T01:50:07;99945.75;;;9.62;85.59
15529;BME280;7866;52.280;9.500;2023-02-23T01:55:11;99951.41;;;9.68;85.68
15529;BME280;7866;52.280;9.500;2023-02-23T02:00:14;99953.09;;;9.60;85.01
15529;BME280;7866;52.280;9.500;2023-02-23T02:05:20;99951.13;;;9.54;85.22
15529;BME280;7866;52.280;9.500;2023-02-23T02:10:23;99947.28;;;9.49;85.94
15529;BME280;7866;52.280;9.500;2023-02-23T02:15:52;99948.47;;;9.54;86.08
15529;BME280;7866;52.280;9.500;2023-02-23T02:21:15;99947.97;;;9.51;86.50
15529;BME280;7866;52.280;9.500;2023-02-23T02:26:33;99956.00;;;9.51;86.26
15529;BME280;7866;52.280;9.500;2023-02-23T02:31:57;99957.81;;;9.58;86.65
15529;BME280;7866;52.280;9.500;2023-02-23T02:37:37;99957.47;;;9.61;85.76
15529;BME280;7866;52.280;9.500;2023-02-23T02:42:49;99958.63;;;9.59;85.89
15529;BME280;7866;52.280;9.500;2023-02-23T02:47:59;99953.59;;;9.64;86.03
15529;BME280;7866;52.280;9.500;2023-02-23T02:53:07;99950.78;;;9.66;86.51
15529;BME280;7866;52.280;9.500;2023-02-23T02:58:11;99941.44;;;9.61;86.40
15529;BME280;7866;52.280;9.500;2023-02-23T03:03:27;99933.09;;;9.48;87.32
15529;BME280;7866;52.280;9.500;2023-02-23T03:08:54;99934.75;;;9.49;87.23
15529;BME280;7866;52.280;9.500;2023-02-23T03:14:25;99930.09;;;9.51;87.94
15529;BME280;7866;52.280;9.500;2023-02-23T03:19:53;99936.06;;;9.53;87.38
15529;BME280;7866;52.280;9.500;2023-02-23T03:25:19;99931.94;;;9.51;87.16
15529;BME280;7866;52.280;9.500;2023-02-23T03:30:47;99946.31;;;9.50;87.68
15529;BME280;7866;52.280;9.500;2023-02-23T03:36:14;99938.75;;;9.53;87.61
15529;BME280;7866;52.280;9.500;2023-02-23T03:41:37;99946.97;;;9.44;87.91
15529;BME280;7866;52.280;9.500;2023-02-23T03:47:00;99947.50;;;9.39;88.67
15529;BME280;7866;52.280;9.500;2023-02-23T03:52:23;99943.47;;;9.43;88.58
15529;BME280;7866;52.280;9.500;2023-02-23T03:57:49;99944.34;;;9.35;89.61
15529;BME280;7866;52.280;9.500;2023-02-23T04:03:11;99947.34;;;9.32;90.07
15529;BME280;7866;52.280;9.500;2023-02-23T04:08:35;99936.84;;;9.31;90.31
15529;BME280;7866;52.280;9.500;2023-02-23T04:14:00;99946.31;;;9.33;90.10
15529;BME280;7866;52.280;9.500;2023-02-23T04:19:01;99943.66;;;9.33;90.28
15529;BME280;7866;52.280;9.500;2023-02-23T04:24:03;99947.34;;;9.32;89.93
15529;BME280;7866;52.280;9.500;2023-02-23T04:29:06;99953.69;;;9.31;89.87
15529;BME280;7866;52.280;9.500;2023-02-23T04:34:08;99955.03;;;9.27;90.23
15529;BME280;7866;52.280;9.500;2023-02-23T04:39:09;99958.84;;;9.33;90.06
15529;BME280;7866;52.280;9.500;2023-02-23T04:44:12;99957.00;;;9.33;89.81
15529;BME280;7866;52.280;9.500;2023-02-23T04:49:14;99955.03;;;9.35;90.55
15529;BME280;7866;52.280;9.500;2023-02-23T04:54:15;99960.84;;;9.39;90.01
15529;BME280;7866;52.280;9.500;2023-02-23T04:59:18;99953.50;;;9.41;90.28
15529;BME280;7866;52.280;9.500;2023-02-23T05:04:20;99957.38;;;9.38;90.58
15529;BME280;7866;52.280;9.500;2023-02-23T05:09:22;99946.00;;;9.36;91.20
15529;BME280;7866;52.280;9.500;2023-02-23T05:14:25;99955.84;;;9.36;91.57
15529;BME280;7866;52.280;9.500;2023-02-23T05:19:26;99960.69;;;9.41;91.50
15529;BME280;7866;52.280;9.500;2023-02-23T05:24:28;99959.19;;;9.38;91.03
15529;BME280;7866;52.280;9.500;2023-02-23T05:29:31;99967.88;;;9.40;91.00
15529;BME280;7866;52.280;9.500;2023-02-23T05:34:32;99969.03;;;9.46;91.00
15529;BME280;7866;52.280;9.500;2023-02-23T05:39:34;99968.38;;;9.44;90.73
15529;BME280;7866;52.280;9.500;2023-02-23T05:44:37;99964.84;;;9.43;91.17
15529;BME280;7866;52.280;9.500;2023-02-23T05:49:39;99957.38;;;9.38;91.56
15529;BME280;7866;52.280;9.500;2023-02-23T05:54:40;99961.53;;;9.33;91.74
15529;BME280;7866;52.280;9.500;2023-02-23T05:59:43;99951.34;;;9.36;91.97
15529;BME280;7866;52.280;9.500;2023-02-23T06:04:45;99955.69;;;9.37;91.58
15529;BME280;7866;52.280;9.500;2023-02-23T06:09:46;99960.19;;;9.37;91.45
15529;BME280;7866;52.280;9.500;2023-02-23T06:14:49;99959.53;;;9.35;91.75
15529;BME280;7866;52.280;9.500;2023-02-23T06:19:51;99971.06;;;9.35;91.48
15529;BME280;7866;52.280;9.500;2023-02-23T06:24:53;99968.56;;;9.34;92.12
15529;BME280;7866;52.280;9.500;2023-02-23T06:29:56;99974.75;;;9.34;91.89
15529;BME280;7866;52.280;9.500;2023-02-23T06:34:57;99974.88;;;9.33;91.57
15529;BME280;7866;52.280;9.500;2023-02-23T06:39:59;99984.63;;;9.26;91.88
15529;BME280;7866;52.280;9.500;2023-02-23T06:45:02;99985.44;;;9.26;92.34
15529;BME280;7866;52.280;9.500;2023-02-23T06:50:05;99989.28;;;9.24;92.01
15529;BME280;7866;52.280;9.500;2023-02-23T06:55:08;99995.31;;;9.18;92.59
15529;BME280;7866;52.280;9.500;2023-02-23T07:00:12;100006.84;;;9.18;92.97
15529;BME280;7866;52.280;9.500;2023-02-23T07:05:17;100014.00;;;9.18;93.80
15529;BME280;7866;52.280;9.500;2023-02-23T07:10:18;100017.16;;;9.21;93.96
15529;BME280;7866;52.280;9.500;2023-02-23T07:15:21;100011.69;;;9.15;94.43
15529;BME280;7866;52.280;9.500;2023-02-23T07:20:23;100026.34;;;9.27;94.41
15529;BME280;7866;52.280;9.500;2023-02-23T07:25:25;100027.38;;;9.26;93.83
15529;BME280;7866;52.280;9.500;2023-02-23T07:30:28;100022.69;;;9.20;94.28
15529;BME280;7866;52.280;9.500;2023-02-23T07:35:29;100030.38;;;9.23;94.42
15529;BME280;7866;52.280;9.500;2023-02-23T07:40:31;100028.84;;;9.20;94.05
15529;BME280;7866;52.280;9.500;2023-02-23T07:45:34;100026.19;;;9.20;94.62
15529;BME280;7866;52.280;9.500;2023-02-23T07:50:38;100032.53;;;9.27;95.41
15529;BME280;7866;52.280;9.500;2023-02-23T07:55:40;100034.88;;;9.30;94.53
15529;BME280;7866;52.280;9.500;2023-02-23T08:00:43;100048.75;;;9.34;94.30
15529;BME280;7866;52.280;9.500;2023-02-23T08:05:44;100049.38;;;9.36;93.92
15529;BME280;7866;52.280;9.500;2023-02-23T08:10:46;100055.75;;;9.35;94.64
15529;BME280;7866;52.280;9.500;2023-02-23T08:15:49;100062.44;;;9.31;95.21
15529;BME280;7866;52.280;9.500;2023-02-23T08:20:56;100058.41;;;9.43;95.26
15529;BME280;7866;52.280;9.500;2023-02-23T08:25:59;100062.91;;;9.51;95.79
15529;BME280;7866;52.280;9.500;2023-02-23T08:31:02;100057.72;;;9.49;95.18
15529;BME280;7866;52.280;9.500;2023-02-23T08:36:04;100063.75;;;9.43;95.82
15529;BME280;7866;52.280;9.500;2023-02-23T08:41:05;100067.06;;;9.45;95.33
15529;BME280;7866;52.280;9.500;2023-02-23T08:46:08;100072.78;;;9.50;95.41
15529;BME280;7866;52.280;9.500;2023-02-23T08:51:10;100068.06;;;9.52;95.81
15529;BME280;7866;52.280;9.500;2023-02-23T08:56:14;100077.44;;;9.48;95.30
15529;BME280;7866;52.280;9.500;2023-02-23T09:01:18;100083.47;;;9.42;95.77
15529;BME280;7866;52.280;9.500;2023-02-23T09:06:23;100076.78;;;9.54;96.22
15529;BME280;7866;52.280;9.500;2023-02-23T09:11:26;100089.78;;;9.41;96.01
15529;BME280;7866;52.280;9.500;2023-02-23T09:16:28;100092.84;;;9.38;96.34
15529;BME280;7866;52.280;9.500;2023-02-23T09:21:31;100100.50;;;9.33;96.94
15529;BME280;7866;52.280;9.500;2023-02-23T09:26:33;100102.69;;;9.37;96.84
15529;BME280;7866;52.280;9.500;2023-02-23T09:31:40;100105.50;;;9.44;96.87
15529;BME280;7866;52.280;9.500;2023-02-23T09:36:42;100103.50;;;9.54;96.64
15529;BME280;7866;52.280;9.500;2023-02-23T09:42:08;100111.19;;;9.66;96.78
15529;BME280;7866;52.280;9.500;2023-02-23T09:47:33;100108.34;;;9.67;96.49
15529;BME280;7866;52.280;9.500;2023-02-23T09:52:43;100113.34;;;9.70;96.24
15529;BME280;7866;52.280;9.500;2023-02-23T09:57:47;100121.53;;;9.77;95.83
15529;BME280;7866;52.280;9.500;2023-02-23T10:03:16;100116.88;;;9.71;95.37
15529;BME280;7866;52.280;9.500;2023-02-23T10:08:42;100127.56;;;9.46;96.08
15529;BME280;7866;52.280;9.500;2023-02-23T10:13:55;100124.72;;;9.40;96.41
15529;BME280;7866;52.280;9.500;2023-02-23T10:19:06;100125.06;;;9.45;97.02
15529;BME280;7866;52.280;9.500;2023-02-23T10:24:17;100130.38;;;9.53;96.64
15529;BME280;7866;52.280;9.500;2023-02-23T10:29:25;100133.25;;;9.51;96.76
15529;BME280;7866;52.280;9.500;2023-02-23T10:34:29;100140.56;;;9.33;98.57
15529;BME280;7866;52.280;9.500;2023-02-23T10:39:31;100133.75;;;9.30;99.53
15529;BME280;7866;52.280;9.500;2023-02-23T10:44:34;100140.94;;;9.22;100.00
15529;BME280;7866;52.280;9.500;2023-02-23T10:49:41;100140.94;;;9.22;100.00
15529;BME280;7866;52.280;9.500;2023-02-23T10:54:45;100136.41;;;9.22;100.00
15529;BME280;7866;52.280;9.500;2023-02-23T11:00:23;100132.56;;;9.41;100.00
15529;BME280;7866;52.280;9.500;2023-02-23T11:05:43;100129.75;;;9.59;99.82
15529;BME280;7866;52.280;9.500;2023-02-23T11:11:04;100131.38;;;9.68;99.03
15529;BME280;7866;52.280;9.500;2023-02-23T11:16:10;100129.91;;;9.66;98.37
15529;BME280;7866;52.280;9.500;2023-02-23T11:21:21;100125.91;;;9.70;97.67
15529;BME280;7866;52.280;9.500;2023-02-23T11:26:28;100118.19;;;9.75;98.17
15529;BME280;7866;52.280;9.500;2023-02-23T11:31:32;100114.19;;;9.71;97.20
15529;BME280;7866;52.280;9.500;2023-02-23T11:36:36;100112.34;;;9.79;98.17
15529;BME280;7866;52.280;9.500;2023-02-23T11:41:38;100116.63;;;10.05;97.16
15529;BME280;7866;52.280;9.500;2023-02-23T11:46:41;100105.09;;;10.04;97.15
15529;BME280;7866;52.280;9.500;2023-02-23T11:51:48;100110.63;;;9.95;96.38
15529;BME280;7866;52.280;9.500;2023-02-23T11:56:51;100102.44;;;9.96;96.05
15529;BME280;7866;52.280;9.500;2023-02-23T12:02:02;100097.63;;;9.83;96.06
15529;BME280;7866;52.280;9.500;2023-02-23T12:07:28;100090.13;;;9.71;95.83
15529;BME280;7866;52.280;9.500;2023-02-23T12:12:42;100094.47;;;9.63;96.18
15529;BME280;7866;52.280;9.500;2023-02-23T12:17:49;100089.81;;;9.66;96.33
15529;BME280;7866;52.280;9.500;2023-02-23T12:22:58;100094.78;;;9.77;96.74
15529;BME280;7866;52.280;9.500;2023-02-23T12:28:03;100089.03;;;10.04;96.48
15529;BME280;7866;52.280;9.500;2023-02-23T12:33:12;100085.72;;;9.94;95.47
15529;BME280;7866;52.280;9.500;2023-02-23T12:38:24;100083.28;;;9.60;94.71
15529;BME280;7866;52.280;9.500;2023-02-23T12:43:34;100080.09;;;9.56;94.97
15529;BME280;7866;52.280;9.500;2023-02-23T12:48:45;100090.44;;;9.76;95.35
15529;BME280;7866;52.280;9.500;2023-02-23T12:53:50;100090.09;;;9.79;94.58
15529;BME280;7866;52.280;9.500;2023-02-23T12:58:58;100090.09;;;9.79;95.19
15529;BME280;7866;52.280;9.500;2023-02-23T13:09:54;100090.81;;;9.40;95.46
15529;BME280;7866;52.280;9.500;2023-02-23T13:15:09;100085.66;;;9.38;96.18
15529;BME280;7866;52.280;9.500;2023-02-23T13:20:18;100091.00;;;9.38;96.87
15529;BME280;7866;52.280;9.500;2023-02-23T13:25:34;100090.63;;;9.25;96.19
15529;BME280;7866;52.280;9.500;2023-02-23T13:30:37;100086.47;;;9.15;96.80
15529;BME280;7866;52.280;9.500;2023-02-23T13:35:45;100086.47;;;9.23;97.61
15529;BME280;7866;52.280;9.500;2023-02-23T13:40:50;100089.81;;;9.17;97.25
15529;BME280;7866;52.280;9.500;2023-02-23T13:46:11;100091.97;;;9.21;97.68
15529;BME280;7866;52.280;9.500;2023-02-23T13:51:22;100079.94;;;9.33;97.15
15529;BME280;7866;52.280;9.500;2023-02-23T13:56:31;100090.63;;;9.33;97.17
15529;BME280;7866;52.280;9.500;2023-02-23T14:01:37;100085.47;;;9.24;96.31
15529;BME280;7866;52.280;9.500;2023-02-23T14:06:49;100086.97;;;9.34;96.54
15529;BME280;7866;52.280;9.500;2023-02-23T14:12:04;100088.81;;;9.26;96.64
15529;BME280;7866;52.280;9.500;2023-02-23T14:22:27;100087.63;;;9.20;96.63
15529;BME280;7866;52.280;9.500;2023-02-23T14:27:34;100092.16;;;9.20;97.05
15529;BME280;7866;52.280;9.500;2023-02-23T14:32:44;100089.28;;;9.29;97.66
15529;BME280;7866;52.280;9.500;2023-02-23T14:37:53;100094.16;;;9.26;97.01
15529;BME280;7866;52.280;9.500;2023-02-23T14:43:00;100091.81;;;9.15;97.37
15529;BME280;7866;52.280;9.500;2023-02-23T14:48:05;100092.84;;;9.22;97.98
15529;BME280;7866;52.280;9.500;2023-02-23T14:53:17;100095.66;;;9.20;97.53
15529;BME280;7866;52.280;9.500;2023-02-23T14:58:23;100104.16;;;9.16;97.38
15529;BME280;7866;52.280;9.500;2023-02-23T15:03:26;100097.31;;;9.05;97.34
15529;BME280;7866;52.280;9.500;2023-02-23T15:08:29;100105.16;;;8.98;97.28
15529;BME280;7866;52.280;9.500;2023-02-23T15:13:34;100105.94;;;8.74;97.98
15529;BME280;7866;52.280;9.500;2023-02-23T15:18:39;100105.44;;;8.79;97.92
15529;BME280;7866;52.280;9.500;2023-02-23T15:23:43;100101.94;;;8.78;98.06
15529;BME280;7866;52.280;9.500;2023-02-23T15:28:46;100104.59;;;8.70;98.49
15529;BME280;7866;52.280;9.500;2023-02-23T15:33:48;100106.59;;;8.68;98.89
15529;BME280;7866;52.280;9.500;2023-02-23T15:38:52;100109.75;;;8.63;99.16
15529;BME280;7866;52.280;9.500;2023-02-23T15:44:04;100116.44;;;8.68;99.60
15529;BME280;7866;52.280;9.500;2023-02-23T15:49:10;100117.72;;;8.55;100.00
15529;BME280;7866;52.280;9.500;2023-02-23T15:54:18;100120.56;;;8.54;100.00
15529;BME280;7866;52.280;9.500;2023-02-23T15:59:26;100108.66;;;8.40;100.00
15529;BME280;7866;52.280;9.500;2023-02-23T16:04:30;100108.84;;;8.38;100.00
15529;BME280;7866;52.280;9.500;2023-02-23T16:09:36;100119.72;;;8.19;100.00
15529;BME280;7866;52.280;9.500;2023-02-23T16:14:44;100119.72;;;8.19;100.00
15529;BME280;7866;52.280;9.500;2023-02-23T16:19:46;100118.72;;;8.20;100.00
15529;BME280;7866;52.280;9.500;2023-02-23T16:24:55;100115.56;;;8.25;100.00
15529;BME280;7866;52.280;9.500;2023-02-23T16:30:17;100117.56;;;8.23;100.00
15529;BME280;7866;52.280;9.500;2023-02-23T16:35:22;100109.22;;;8.26;100.00
15529;BME280;7866;52.280;9.500;2023-02-23T16:40:24;100103.84;;;8.18;100.00
15529;BME280;7866;52.280;9.500;2023-02-23T16:45:27;100110.03;;;8.18;99.58
15529;BME280;7866;52.280;9.500;2023-02-23T16:50:29;100115.22;;;8.20;99.94
15529;BME280;7866;52.280;9.500;2023-02-23T16:55:34;100112.81;;;8.08;99.47
15529;BME280;7866;52.280;9.500;2023-02-23T17:00:39;100113.81;;;8.07;99.65
15529;BME280;7866;52.280;9.500;2023-02-23T17:05:41;100114.84;;;8.14;99.80
15529;BME280;7866;52.280;9.500;2023-02-23T17:10:46;100112.84;;;8.17;99.76
15529;BME280;7866;52.280;9.500;2023-02-23T17:15:52;100125.19;;;8.18;99.50
15529;BME280;7866;52.280;9.500;2023-02-23T17:20:56;100118.84;;;8.10;99.30
15529;BME280;7866;52.280;9.500;2023-02-23T17:25:58;100126.84;;;8.10;99.65
15529;BME280;7866;52.280;9.500;2023-02-23T17:31:02;100124.28;;;8.01;100.00
15529;BME280;7866;52.280;9.500;2023-02-23T17:36:06;100129.41;;;7.94;100.00
15529;BME280;7866;52.280;9.500;2023-02-23T17:41:11;100135.09;;;7.99;100.00
15529;BME280;7866;52.280;9.500;2023-02-23T17:46:14;100139.13;;;8.03;100.00
15529;BME280;7866;52.280;9.500;2023-02-23T17:51:15;100136.41;;;7.95;100.00
15529;BME280;7866;52.280;9.500;2023-02-23T17:56:18;100144.13;;;7.80;100.00
15529;BME280;7866;52.280;9.500;2023-02-23T18:01:23;100146.75;;;7.72;100.00
15529;BME280;7866;52.280;9.500;2023-02-23T18:06:25;100143.19;;;7.89;100.00
15529;BME280;7866;52.280;9.500;2023-02-23T18:11:27;100146.78;;;7.98;100.00
15529;BME280;7866;52.280;9.500;2023-02-23T18:16:30;100141.38;;;7.90;100.00
15529;BME280;7866;52.280;9.500;2023-02-23T18:21:32;100145.06;;;7.97;100.00
15529;BME280;7866;52.280;9.500;2023-02-23T18:26:38;100145.59;;;8.01;99.27
15529;BME280;7866;52.280;9.500;2023-02-23T18:31:41;100150.28;;;7.99;99.28
15529;BME280;7866;52.280;9.500;2023-02-23T18:36:43;100149.78;;;8.03;98.94
15529;BME280;7866;52.280;9.500;2023-02-23T18:41:47;100147.84;;;7.87;98.10
15529;BME280;7866;52.280;9.500;2023-02-23T18:46:51;100148.34;;;7.83;98.77
15529;BME280;7866;52.280;9.500;2023-02-23T18:51:53;100148.03;;;7.86;98.66
15529;BME280;7866;52.280;9.500;2023-02-23T18:56:55;100157.56;;;7.71;98.16
15529;BME280;7866;52.280;9.500;2023-02-23T19:01:58;100152.06;;;7.72;98.84
15529;BME280;7866;52.280;9.500;2023-02-23T19:07:03;100150.25;;;7.73;98.79
15529;BME280;7866;52.280;9.500;2023-02-23T19:12:06;100156.41;;;7.73;98.85
15529;BME280;7866;52.280;9.500;2023-02-23T19:17:09;100153.84;;;7.63;99.07
15529;BME280;7866;52.280;9.500;2023-02-23T19:22:10;100151.31;;;7.62;99.34
15529;BME280;7866;52.280;9.500;2023-02-23T19:27:12;100163.00;;;7.43;100.00
15529;BME280;7866;52.280;9.500;2023-02-23T19:32:16;100165.38;;;7.28;100.00
15529;BME280;7866;52.280;9.500;2023-02-23T19:37:17;100176.88;;;6.83;100.00
15529;BME280;7866;52.280;9.500;2023-02-23T19:42:19;100177.03;;;6.82;100.00
15529;BME280;7866;52.280;9.500;2023-02-23T19:47:22;100183.59;;;6.60;100.00
15529;BME280;7866;52.280;9.500;2023-02-23T19:52:24;100184.72;;;6.57;100.00
15529;BME280;7866;52.280;9.500;2023-02-23T19:57:28;100201.47;;;6.30;98.50
15529;BME280;7866;52.280;9.500;2023-02-23T20:02:31;100194.22;;;6.32;98.90
15529;BME280;7866;52.280;9.500;2023-02-23T20:07:32;100208.06;;;6.26;97.95
15529;BME280;7866;52.280;9.500;2023-02-23T20:12:34;100204.47;;;6.17;97.26
15529;BME280;7866;52.280;9.500;2023-02-23T20:17:37;100201.53;;;6.21;97.83
15529;BME280;7866;52.280;9.500;2023-02-23T20:22:39;100204.78;;;6.14;97.35
15529;BME280;7866;52.280;9.500;2023-02-23T20:27:43;100209.63;;;6.29;96.62
15529;BME280;7866;52.280;9.500;2023-02-23T20:32:46;100207.56;;;6.13;96.23
15529;BME280;7866;52.280;9.500;2023-02-23T20:37:48;100205.56;;;6.34;96.86
15529;BME280;7866;52.280;9.500;2023-02-23T20:42:50;100206.88;;;6.11;95.96
15529;BME280;7866;52.280;9.500;2023-02-23T20:47:53;100201.28;;;6.04;95.73
15529;BME280;7866;52.280;9.500;2023-02-23T20:52:55;100205.50;;;5.97;95.60
15529;BME280;7866;52.280;9.500;2023-02-23T20:57:57;100194.03;;;5.67;95.59
15529;BME280;7866;52.280;9.500;2023-02-23T21:03:01;100202.94;;;5.86;96.34
15529;BME280;7866;52.280;9.500;2023-02-23T21:08:05;100205.34;;;6.08;95.67
15529;BME280;7866;52.280;9.500;2023-02-23T21:13:08;100200.31;;;5.96;95.05
15529;BME280;7866;52.280;9.500;2023-02-23T21:18:12;100191.50;;;5.85;94.53
15529;BME280;7866;52.280;9.500;2023-02-23T21:23:14;100192.75;;;5.81;94.49
15529;BME280;7866;52.280;9.500;2023-02-23T21:28:16;100197.94;;;5.73;94.39
15529;BME280;7866;52.280;9.500;2023-02-23T21:33:21;100194.84;;;5.87;94.08
15529;BME280;7866;52.280;9.500;2023-02-23T21:38:23;100195.53;;;5.89;93.68
15529;BME280;7866;52.280;9.500;2023-02-23T21:43:25;100200.00;;;5.89;94.69
15529;BME280;7866;52.280;9.500;2023-02-23T21:48:29;100199.34;;;5.77;94.58
15529;BME280;7866;52.280;9.500;2023-02-23T21:53:31;100197.94;;;5.73;94.68
15529;BME280;7866;52.280;9.500;2023-02-23T21:58:32;100180.47;;;5.61;93.08
15529;BME280;7866;52.280;9.500;2023-02-23T22:03:35;100173.72;;;5.86;93.40
15529;BME280;7866;52.280;9.500;2023-02-23T22:08:37;100170.81;;;5.69;93.04
15529;BME280;7866;52.280;9.500;2023-02-23T22:13:39;100180.47;;;5.80;93.88
15529;BME280;7866;52.280;9.500;2023-02-23T22:18:42;100165.91;;;5.84;93.67
15529;BME280;7866;52.280;9.500;2023-02-23T22:23:44;100167.16;;;5.80;93.35
15529;BME280;7866;52.280;9.500;2023-02-23T22:28:47;100165.78;;;5.76;92.87
15529;BME280;7866;52.280;9.500;2023-02-23T22:33:50;100169.00;;;5.80;92.82
15529;BME280;7866;52.280;9.500;2023-02-23T22:38:51;100156.28;;;5.54;92.79
15529;BME280;7866;52.280;9.500;2023-02-23T22:43:57;100155.59;;;5.52;93.19
15529;BME280;7866;52.280;9.500;2023-02-23T22:49:00;100156.56;;;5.71;92.58
15529;BME280;7866;52.280;9.500;2023-02-23T22:54:04;100146.91;;;5.50;92.42
15529;BME280;7866;52.280;9.500;2023-02-23T22:59:06;100145.53;;;5.56;92.23
15529;BME280;7866;52.280;9.500;2023-02-23T23:04:11;100145.13;;;5.41;91.85
15529;BME280;7866;52.280;9.500;2023-02-23T23:09:14;100132.97;;;5.48;92.42
15529;BME280;7866;52.280;9.500;2023-02-23T23:14:18;100125.72;;;5.31;91.86
15529;BME280;7866;52.280;9.500;2023-02-23T23:19:21;100128.09;;;5.24;92.53
15529;BME280;7866;52.280;9.500;2023-02-23T23:24:24;100106.56;;;5.17;92.04
15529;BME280;7866;52.280;9.500;2023-02-23T23:29:26;100111.31;;;5.24;92.46
15529;BME280;7866;52.280;9.500;2023-02-23T23:34:30;100114.66;;;5.06;91.75
15529;BME280;7866;52.280;9.500;2023-02-23T23:39:32;100102.94;;;5.09;91.31
15529;BME280;7866;52.280;9.500;2023-02-23T23:44:34;100102.38;;;5.15;91.93
15529;BME280;7866;52.280;9.500;2023-02-23T23:49:37;100093.72;;;5.13;91.74
15529;BME280;7866;52.280;9.500;2023-02-23T23:54:39;100086.03;;;5.10;91.54
15529;BME280;7866;52.280;9.500;2023-02-23T23:59:42;100083.38;;;5.00;91.47
